createdAt,value
2023-05-05T00:00:42.560Z,42.18
2023-05-05T00:03:10.321Z,42.24
2023-05-05T00:05:37.818Z,42.10
2023-05-05T00:08:05.239Z,42.14
2023-05-05T00:10:32.872Z,42.79
2023-05-05T00:13:00.316Z,42.74
2023-05-05T00:15:27.726Z,42.99
2023-05-05T00:17:55.489Z,43.23
2023-05-05T00:20:23.080Z,43.31
2023-05-05T00:22:50.653Z,43.86
2023-05-05T00:25:18.578Z,43.97
2023-05-05T00:27:45.928Z,43.51
2023-05-05T00:30:13.802Z,43.24
2023-05-05T00:32:41.699Z,43.08
2023-05-05T00:35:09.151Z,43.19
2023-05-05T00:37:36.630Z,43.24
2023-05-05T00:40:04.647Z,43.16
2023-05-05T00:42:42.486Z,43.41
2023-05-05T00:45:11.637Z,43.37
2023-05-05T00:47:39.503Z,43.84
2023-05-05T00:50:09.276Z,43.61
2023-05-05T00:52:37.879Z,43.92
2023-05-05T00:55:05.975Z,43.70
2023-05-05T00:57:33.774Z,43.88
2023-05-05T01:00:02.847Z,44.29
2023-05-05T01:02:31.389Z,43.59
2023-05-05T01:04:59.309Z,43.67
2023-05-05T01:07:42.436Z,43.61
2023-05-05T01:10:23.417Z,43.07
2023-05-05T01:13:16.320Z,43.04
2023-05-05T01:16:20.463Z,43.17
2023-05-05T01:18:51.381Z,43.25
2023-05-05T01:21:41.428Z,43.21
2023-05-05T01:24:12.060Z,43.77
2023-05-05T01:27:00.607Z,43.78
2023-05-05T01:29:53.132Z,43.62
2023-05-05T01:32:26.564Z,43.81
2023-05-05T01:35:00.694Z,44.06
2023-05-05T01:37:45.277Z,44.08
2023-05-05T01:40:15.624Z,44.35
2023-05-05T01:42:43.585Z,44.24
2023-05-05T01:45:12.988Z,44.48
2023-05-05T01:47:42.821Z,44.38
2023-05-05T01:50:11.213Z,44.58
2023-05-05T01:52:40.184Z,44.56
2023-05-05T01:55:09.464Z,44.66
2023-05-05T01:57:37.645Z,45.23
2023-05-05T02:00:06.162Z,44.86
2023-05-05T02:02:44.538Z,44.69
2023-05-05T02:05:12.895Z,44.92
2023-05-05T02:07:40.583Z,44.69
2023-05-05T02:10:08.795Z,44.53
2023-05-05T02:12:37.505Z,45.07
2023-05-05T02:15:05.805Z,44.85
2023-05-05T02:17:33.622Z,44.54
2023-05-05T02:20:02.177Z,44.40
2023-05-05T02:22:29.607Z,44.87
2023-05-05T02:24:57.262Z,45.00
2023-05-05T02:27:25.677Z,44.57
2023-05-05T02:29:57.950Z,44.67
2023-05-05T02:32:34.321Z,44.44
2023-05-05T02:35:15.657Z,44.96
2023-05-05T02:37:48.611Z,45.22
2023-05-05T02:40:20.237Z,45.54
2023-05-05T02:42:48.615Z,45.25
2023-05-05T02:45:18.697Z,45.47
2023-05-05T02:47:46.487Z,45.56
2023-05-05T02:50:15.656Z,45.49
2023-05-05T02:52:44.874Z,45.18
2023-05-05T02:55:13.069Z,45.64
2023-05-05T02:57:55.631Z,45.63
2023-05-05T03:00:28.057Z,45.58
2023-05-05T03:03:16.190Z,46.12
2023-05-05T03:05:53.806Z,46.51
2023-05-05T03:08:29.898Z,46.74
2023-05-05T03:11:06.002Z,46.43
2023-05-05T03:13:40.650Z,46.23
2023-05-05T03:16:08.454Z,46.94
2023-05-05T03:18:40.157Z,46.72
2023-05-05T03:21:10.466Z,46.95
2023-05-05T03:23:38.818Z,46.86
2023-05-05T03:26:07.210Z,46.68
2023-05-05T03:28:34.875Z,46.77
2023-05-05T03:31:03.454Z,46.77
2023-05-05T03:33:31.832Z,46.79
2023-05-05T03:35:59.655Z,47.50
2023-05-05T03:38:27.579Z,47.23
2023-05-05T03:40:55.893Z,47.09
2023-05-05T03:43:23.472Z,47.15
2023-05-05T03:45:51.410Z,47.15
2023-05-05T03:48:18.910Z,47.30
2023-05-05T03:50:46.603Z,47.19
2023-05-05T03:53:14.800Z,47.16
2023-05-05T03:55:42.663Z,47.40
2023-05-05T03:58:11.589Z,47.68
2023-05-05T04:00:39.297Z,47.63
2023-05-05T04:03:07.411Z,47.15
2023-05-05T04:05:34.982Z,47.33
2023-05-05T04:08:03.389Z,47.76
2023-05-05T04:10:31.585Z,47.97
2023-05-05T04:12:59.228Z,47.32
2023-05-05T04:15:27.590Z,47.38
2023-05-05T04:17:55.702Z,47.13
2023-05-05T04:20:23.284Z,46.74
2023-05-05T04:22:52.768Z,47.91
2023-05-05T04:25:20.972Z,47.73
2023-05-05T04:27:48.546Z,46.60
2023-05-05T04:30:16.377Z,47.36
2023-05-05T04:32:44.232Z,48.44
2023-05-05T04:35:11.811Z,48.05
2023-05-05T04:37:39.622Z,48.49
2023-05-05T04:40:08.368Z,47.03
2023-05-05T04:42:36.658Z,46.53
2023-05-05T04:45:04.804Z,46.26
2023-05-05T04:47:37.058Z,46.47
2023-05-05T04:50:05.395Z,46.69
2023-05-05T04:52:33.274Z,46.32
2023-05-05T04:55:01.229Z,45.33
2023-05-05T04:57:29.968Z,45.33
2023-05-05T04:59:59.568Z,44.83
2023-05-05T05:02:27.257Z,45.31
2023-05-05T05:04:54.636Z,46.18
2023-05-05T05:07:22.511Z,45.61
2023-05-05T05:09:50.990Z,45.38
2023-05-05T05:12:18.657Z,45.54
2023-05-05T05:14:46.288Z,45.61
2023-05-05T05:17:13.859Z,45.47
2023-05-05T05:19:42.558Z,45.56
2023-05-05T05:22:10.792Z,44.75
2023-05-05T05:24:38.816Z,43.34
2023-05-05T05:27:10.203Z,41.62
2023-05-05T05:29:38.595Z,38.99
2023-05-05T05:32:06.384Z,39.58
2023-05-05T05:34:34.428Z,39.90
2023-05-05T05:37:03.016Z,40.56
2023-05-05T05:39:30.733Z,40.96
2023-05-05T05:41:58.196Z,40.46
2023-05-05T05:44:26.009Z,39.73
2023-05-05T05:46:53.567Z,39.66
2023-05-05T05:49:20.956Z,39.92
2023-05-05T05:51:48.924Z,39.06
2023-05-05T05:54:16.406Z,39.24
2023-05-05T05:56:44.181Z,39.39
2023-05-05T05:59:12.505Z,38.92
2023-05-05T06:01:40.472Z,38.05
2023-05-05T06:04:08.680Z,38.55
2023-05-05T06:06:38.066Z,38.44
2023-05-05T06:09:05.939Z,40.32
2023-05-05T06:11:35.046Z,40.37
2023-05-05T06:14:02.918Z,40.20
2023-05-05T06:16:30.571Z,40.45
2023-05-05T06:18:59.093Z,40.55
2023-05-05T06:21:27.870Z,41.90
2023-05-05T06:23:55.421Z,42.38
2023-05-05T06:26:23.211Z,41.57
2023-05-05T06:28:50.597Z,41.98
2023-05-05T06:31:18.336Z,41.84
2023-05-05T06:33:46.012Z,41.79
2023-05-05T06:36:13.436Z,42.60
2023-05-05T06:38:41.391Z,42.25
2023-05-05T06:41:09.061Z,42.01
2023-05-05T06:43:36.598Z,42.22
2023-05-05T06:46:05.759Z,41.67
2023-05-05T06:48:33.413Z,41.19
2023-05-05T06:51:00.907Z,41.75
2023-05-05T06:53:28.346Z,40.91
2023-05-05T06:55:56.007Z,40.12
2023-05-05T06:58:23.434Z,39.78
2023-05-05T07:00:50.908Z,39.39
2023-05-05T07:03:18.771Z,39.85
2023-05-05T07:05:46.204Z,38.75
2023-05-05T07:08:13.548Z,38.61
2023-05-05T07:10:41.847Z,38.30
2023-05-05T07:13:09.310Z,39.38
2023-05-05T07:15:37.169Z,39.25
2023-05-05T07:18:04.871Z,39.36
2023-05-05T07:20:32.306Z,38.53
2023-05-05T07:22:59.720Z,38.58
2023-05-05T07:25:27.374Z,39.93
2023-05-05T07:27:55.082Z,38.98
2023-05-05T07:30:23.154Z,37.91
2023-05-05T07:32:51.354Z,37.84
2023-05-05T07:35:18.908Z,38.80
2023-05-05T07:37:46.514Z,39.23
2023-05-05T07:40:14.339Z,38.68
2023-05-05T07:42:42.083Z,38.51
2023-05-05T07:45:09.712Z,38.16
2023-05-05T07:47:37.446Z,37.83
2023-05-05T07:50:05.460Z,38.27
2023-05-05T07:52:44.999Z,37.30
2023-05-05T07:55:15.892Z,37.40
2023-05-05T07:57:43.309Z,37.27
2023-05-05T08:00:11.611Z,37.42
2023-05-05T08:02:39.764Z,38.79
2023-05-05T08:05:08.228Z,39.82
2023-05-05T08:07:38.204Z,38.55
2023-05-05T08:10:06.066Z,37.96
2023-05-05T08:12:33.837Z,39.14
2023-05-05T08:15:01.355Z,38.17
2023-05-05T08:17:28.813Z,37.58
2023-05-05T08:19:56.492Z,37.27
2023-05-05T08:22:23.933Z,37.93
2023-05-05T08:24:51.590Z,38.32
2023-05-05T08:27:19.350Z,37.62
2023-05-05T08:29:46.740Z,37.80
2023-05-05T08:32:16.219Z,39.47
2023-05-05T08:34:44.035Z,38.76
2023-05-05T08:37:11.413Z,38.18
2023-05-05T08:39:38.840Z,37.04
2023-05-05T08:42:06.700Z,36.01
2023-05-05T08:44:34.105Z,37.75
2023-05-05T08:47:02.243Z,37.47
2023-05-05T08:49:33.026Z,37.45
2023-05-05T08:52:01.876Z,37.34
2023-05-05T08:54:31.027Z,37.47
2023-05-05T08:57:01.884Z,37.19
2023-05-05T08:59:32.974Z,36.99
2023-05-05T09:02:01.618Z,37.26
2023-05-05T09:04:29.227Z,35.73
2023-05-05T09:07:00.016Z,36.46
2023-05-05T09:09:27.908Z,36.55
2023-05-05T09:11:56.078Z,35.25
2023-05-05T09:14:23.471Z,35.22
2023-05-05T09:16:51.336Z,35.59
2023-05-05T09:19:18.926Z,34.86
2023-05-05T09:21:49.701Z,35.06
2023-05-05T09:24:17.533Z,34.46
2023-05-05T09:26:46.526Z,33.44
2023-05-05T09:29:21.014Z,34.34
2023-05-05T09:32:05.645Z,34.88
2023-05-05T09:34:34.992Z,34.43
2023-05-05T09:37:03.469Z,33.90
2023-05-05T09:39:31.004Z,36.18
2023-05-05T09:41:58.566Z,35.36
2023-05-05T09:44:37.488Z,35.11
2023-05-05T09:47:09.418Z,34.44
2023-05-05T09:49:39.698Z,33.50
2023-05-05T09:52:14.974Z,33.49
2023-05-05T09:54:43.816Z,33.58
2023-05-05T09:57:33.894Z,32.28
2023-05-05T10:00:02.608Z,31.84
2023-05-05T10:02:39.371Z,30.97
2023-05-05T10:05:15.995Z,31.20
2023-05-05T10:07:45.283Z,31.47
2023-05-05T10:10:16.174Z,30.62
2023-05-05T10:12:46.630Z,30.43
2023-05-05T10:15:15.702Z,30.00
2023-05-05T10:20:21.175Z,28.66
2023-05-05T10:22:52.734Z,29.41
2023-05-05T10:25:31.480Z,29.42
2023-05-05T10:28:06.409Z,29.60
2023-05-05T10:30:37.183Z,27.38
2023-05-05T10:33:30.268Z,28.86
2023-05-05T10:36:01.860Z,28.97
2023-05-05T10:38:31.019Z,29.60
2023-05-05T10:41:00.739Z,29.36
2023-05-05T10:43:30.150Z,29.38
2023-05-05T10:45:58.345Z,28.85
2023-05-05T10:49:01.968Z,27.81
2023-05-05T10:51:40.681Z,28.99
2023-05-05T10:54:16.979Z,28.42
2023-05-05T10:56:44.525Z,28.61
2023-05-05T10:59:37.110Z,28.94
2023-05-05T11:02:24.185Z,28.51
2023-05-05T11:05:14.970Z,28.20
2023-05-05T11:07:43.713Z,27.97
2023-05-05T11:10:13.054Z,28.89
2023-05-05T11:12:52.600Z,28.58
2023-05-05T11:15:26.500Z,29.10
2023-05-05T11:17:58.252Z,29.56
2023-05-05T11:20:40.983Z,29.30
2023-05-05T11:23:08.310Z,28.76
2023-05-05T11:25:42.125Z,29.80
2023-05-05T11:28:12.951Z,28.92
2023-05-05T11:30:56.400Z,29.47
2023-05-05T11:33:29.397Z,28.37
2023-05-05T11:36:07.833Z,28.50
2023-05-05T11:39:12.919Z,28.07
2023-05-05T11:41:57.640Z,29.46
2023-05-05T11:44:34.557Z,26.91
2023-05-05T11:47:05.069Z,27.16
2023-05-05T11:49:34.526Z,26.98
2023-05-05T11:52:09.623Z,26.78
2023-05-05T11:54:37.659Z,27.27
2023-05-05T11:57:07.285Z,26.72
2023-05-05T11:59:38.866Z,26.68
2023-05-05T12:02:06.520Z,27.84
2023-05-05T12:04:39.506Z,27.60
2023-05-05T12:07:06.972Z,27.95
2023-05-05T12:09:34.627Z,28.88
2023-05-05T12:12:02.718Z,28.12
2023-05-05T12:14:30.113Z,27.78
2023-05-05T12:17:03.458Z,28.59
2023-05-05T12:19:33.398Z,29.72
2023-05-05T12:22:02.099Z,30.29
2023-05-05T12:24:32.454Z,28.88
2023-05-05T12:27:10.648Z,29.01
2023-05-05T12:29:38.326Z,28.86
2023-05-05T12:32:05.913Z,29.06
2023-05-05T12:34:33.507Z,28.84
2023-05-05T12:37:01.521Z,29.67
2023-05-05T12:39:38.304Z,29.13
2023-05-05T12:42:06.423Z,29.34
2023-05-05T12:44:40.781Z,29.12
2023-05-05T12:47:08.549Z,28.65
2023-05-05T12:49:50.082Z,29.44
2023-05-05T12:52:18.390Z,28.83
2023-05-05T12:54:59.605Z,28.69
2023-05-05T12:57:27.335Z,29.53
2023-05-05T12:59:54.777Z,28.94
2023-05-05T13:02:33.913Z,30.36
2023-05-05T13:05:01.698Z,30.57
2023-05-05T13:07:29.092Z,30.60
2023-05-05T13:10:08.246Z,29.79
2023-05-05T13:12:36.124Z,29.47
2023-05-05T13:15:03.997Z,30.29
2023-05-05T13:17:34.075Z,29.93
2023-05-05T13:20:02.467Z,29.62
2023-05-05T13:22:29.908Z,30.16
2023-05-05T13:24:57.286Z,29.87
2023-05-05T13:27:24.994Z,31.52
2023-05-05T13:29:52.403Z,29.82
2023-05-05T13:32:19.833Z,28.94
2023-05-05T13:34:47.511Z,28.88
2023-05-05T13:37:14.981Z,28.66
2023-05-05T13:39:43.329Z,28.84
2023-05-05T13:42:11.194Z,29.56
2023-05-05T13:44:38.697Z,29.23
2023-05-05T13:47:06.186Z,28.39
2023-05-05T13:49:35.130Z,28.97
2023-05-05T13:52:03.080Z,29.07
2023-05-05T13:54:30.627Z,30.16
2023-05-05T13:56:58.525Z,30.23
2023-05-05T13:59:25.957Z,29.22
2023-05-05T14:01:53.372Z,29.13
2023-05-05T14:04:21.084Z,30.58
2023-05-05T14:06:48.677Z,31.17
2023-05-05T14:09:16.350Z,29.73
2023-05-05T14:11:44.063Z,29.55
2023-05-05T14:14:11.493Z,30.16
2023-05-05T14:16:38.998Z,30.21
2023-05-05T14:19:06.706Z,29.20
2023-05-05T14:21:34.078Z,29.39
2023-05-05T14:24:01.527Z,29.99
2023-05-05T14:26:29.225Z,28.58
2023-05-05T14:28:56.634Z,28.68
2023-05-05T14:31:24.074Z,28.10
2023-05-05T14:33:51.761Z,27.95
2023-05-05T14:36:19.301Z,28.53
2023-05-05T14:38:46.900Z,28.78
2023-05-05T14:41:14.678Z,28.47
2023-05-05T14:43:42.072Z,28.41
2023-05-05T14:46:09.566Z,28.88
2023-05-05T14:48:37.688Z,28.73
2023-05-05T14:51:05.101Z,27.96
2023-05-05T14:53:32.572Z,28.20
2023-05-05T14:56:00.889Z,27.85
2023-05-05T14:58:28.297Z,27.87
2023-05-05T15:00:55.842Z,28.33
2023-05-05T15:03:23.701Z,28.21
2023-05-05T15:05:51.145Z,27.93
2023-05-05T15:08:21.267Z,27.27
2023-05-05T15:10:48.956Z,27.52
2023-05-05T15:13:17.206Z,27.61
2023-05-05T15:15:45.221Z,27.36
2023-05-05T15:18:12.946Z,27.55
2023-05-05T15:20:40.382Z,27.63
2023-05-05T15:23:07.865Z,27.70
2023-05-05T15:25:35.688Z,28.32
2023-05-05T15:28:03.133Z,27.73
2023-05-05T15:30:30.730Z,27.05
2023-05-05T15:32:58.655Z,26.29
2023-05-05T15:35:26.113Z,27.24
2023-05-05T15:37:54.416Z,27.35
2023-05-05T15:40:22.280Z,27.52
2023-05-05T15:42:49.936Z,28.11
2023-05-05T15:45:17.553Z,28.07
2023-05-05T15:47:46.144Z,28.15
2023-05-05T15:50:14.136Z,27.89
2023-05-05T15:52:41.758Z,28.64
2023-05-05T15:55:10.239Z,29.14
2023-05-05T15:57:39.877Z,28.66
2023-05-05T16:00:08.539Z,28.10
2023-05-05T16:02:35.996Z,28.32
2023-05-05T16:05:04.589Z,28.40
2023-05-05T16:07:32.062Z,28.92
2023-05-05T16:09:59.452Z,29.01
2023-05-05T16:12:28.161Z,28.74
2023-05-05T16:14:55.787Z,28.03
2023-05-05T16:17:23.180Z,27.62
2023-05-05T16:19:50.967Z,28.00
2023-05-05T16:22:18.425Z,27.65
2023-05-05T16:24:45.848Z,28.46
2023-05-05T16:27:14.745Z,28.51
2023-05-05T16:29:42.167Z,28.61
2023-05-05T16:32:09.579Z,28.11
2023-05-05T16:34:37.338Z,28.67
2023-05-05T16:37:04.815Z,28.67
2023-05-05T16:39:33.076Z,28.67
2023-05-05T16:42:00.818Z,29.12
2023-05-05T16:44:28.236Z,28.89
2023-05-05T16:46:55.646Z,28.48
2023-05-05T16:49:24.273Z,28.60
2023-05-05T16:51:53.485Z,28.00
2023-05-05T16:54:20.929Z,27.54
2023-05-05T16:56:48.627Z,27.53
2023-05-05T16:59:18.371Z,27.84
2023-05-05T17:01:46.771Z,27.83
2023-05-05T17:04:14.738Z,27.87
2023-05-05T17:06:42.484Z,27.87
2023-05-05T17:09:09.890Z,27.83
2023-05-05T17:11:37.537Z,28.18
2023-05-05T17:14:04.982Z,28.08
2023-05-05T17:16:32.604Z,28.07
2023-05-05T17:19:00.660Z,28.51
2023-05-05T17:21:28.098Z,28.45
2023-05-05T17:23:55.526Z,28.32
2023-05-05T17:26:23.152Z,27.96
2023-05-05T17:28:50.579Z,28.08
2023-05-05T17:31:18.047Z,28.69
2023-05-05T17:33:45.747Z,28.92
2023-05-05T17:36:13.132Z,29.26
2023-05-05T17:38:40.574Z,29.54
2023-05-05T17:41:08.252Z,29.65
2023-05-05T17:43:35.629Z,30.31
2023-05-05T17:46:03.076Z,30.44
2023-05-05T17:48:30.811Z,30.49
2023-05-05T17:50:58.221Z,30.59
2023-05-05T17:53:26.458Z,30.74
2023-05-05T17:55:54.555Z,31.21
2023-05-05T17:58:22.007Z,31.58
2023-05-05T18:00:49.490Z,31.86
2023-05-05T18:03:17.370Z,31.93
2023-05-05T18:05:44.955Z,32.05
2023-05-05T18:08:12.452Z,32.15
2023-05-05T18:10:40.109Z,32.25
2023-05-05T18:13:07.911Z,32.33
2023-05-05T18:15:35.418Z,32.77
2023-05-05T18:18:03.271Z,32.89
2023-05-05T18:20:30.809Z,33.19
2023-05-05T18:22:58.221Z,33.13
2023-05-05T18:25:26.200Z,33.63
2023-05-05T18:27:53.690Z,34.60
2023-05-05T18:30:21.056Z,34.41
2023-05-05T18:32:48.890Z,34.54
2023-05-05T18:35:16.685Z,35.08
2023-05-05T18:37:44.106Z,35.18
2023-05-05T18:40:12.273Z,35.56
2023-05-05T18:42:39.726Z,36.01
2023-05-05T18:45:08.689Z,36.24
2023-05-05T18:47:37.605Z,36.40
2023-05-05T18:50:06.267Z,36.54
2023-05-05T18:52:33.842Z,36.97
2023-05-05T18:55:01.999Z,37.45
2023-05-05T18:57:29.789Z,38.18
2023-05-05T18:59:57.207Z,38.47
2023-05-05T19:02:24.999Z,38.74
2023-05-05T19:04:52.442Z,38.71
2023-05-05T19:07:33.887Z,39.06
2023-05-05T19:10:06.491Z,39.35
2023-05-05T19:12:33.944Z,39.47
2023-05-05T19:15:01.415Z,39.53
2023-05-05T19:17:29.376Z,39.50
2023-05-05T19:19:56.802Z,39.59
2023-05-05T19:22:24.156Z,39.61
2023-05-05T19:24:51.773Z,39.88
2023-05-05T19:27:19.159Z,40.12
2023-05-05T19:29:49.163Z,40.24
2023-05-05T19:32:16.933Z,40.49
2023-05-05T19:34:44.387Z,40.65
2023-05-05T19:37:11.885Z,40.39
2023-05-05T19:39:39.985Z,40.73
2023-05-05T19:42:07.446Z,40.98
2023-05-05T19:44:34.859Z,41.45
2023-05-05T19:47:02.650Z,41.66
2023-05-05T19:49:30.061Z,41.74
2023-05-05T19:51:58.916Z,41.63
2023-05-05T19:54:27.488Z,41.80
2023-05-05T19:56:57.275Z,41.87
2023-05-05T19:59:24.922Z,41.94
2023-05-05T20:01:52.679Z,42.39
2023-05-05T20:04:37.329Z,42.94
2023-05-05T20:07:05.243Z,42.78
2023-05-05T20:09:32.644Z,43.03
2023-05-05T20:12:00.094Z,43.67
2023-05-05T20:14:27.797Z,43.52
2023-05-05T20:16:55.202Z,43.46
2023-05-05T20:19:22.939Z,43.50
2023-05-05T20:21:50.652Z,43.78
2023-05-05T20:24:18.154Z,43.73
2023-05-05T20:26:45.698Z,44.93
2023-05-05T20:29:15.143Z,45.52
2023-05-05T20:31:42.609Z,45.80
2023-05-05T20:34:10.114Z,45.84
2023-05-05T20:36:37.862Z,45.13
2023-05-05T20:39:05.324Z,44.92
2023-05-05T20:41:32.815Z,44.87
2023-05-05T20:44:00.739Z,45.05
2023-05-05T20:46:28.260Z,45.16
2023-05-05T20:48:55.922Z,45.29
2023-05-05T20:51:23.625Z,45.47
2023-05-05T20:53:51.129Z,45.65
2023-05-05T20:56:18.638Z,45.61
2023-05-05T20:58:46.288Z,45.59
2023-05-05T21:01:13.818Z,45.81
2023-05-05T21:03:41.303Z,45.70
2023-05-05T21:06:08.999Z,45.59
2023-05-05T21:08:36.457Z,45.95
2023-05-05T21:11:08.744Z,45.61
2023-05-05T21:13:36.539Z,45.31
2023-05-05T21:16:04.077Z,45.33
2023-05-05T21:18:31.492Z,45.82
2023-05-05T21:20:59.415Z,46.44
2023-05-05T21:23:26.773Z,46.36
2023-05-05T21:25:54.199Z,46.32
2023-05-05T21:28:21.915Z,46.63
2023-05-05T21:31:10.273Z,46.39
2023-05-05T21:33:39.102Z,46.64
2023-05-05T21:36:06.542Z,47.21
2023-05-05T21:38:34.020Z,47.28
2023-05-05T21:41:02.405Z,47.04
2023-05-05T21:43:29.781Z,47.17
2023-05-05T21:46:03.716Z,46.99
2023-05-05T21:48:31.854Z,47.13
2023-05-05T21:50:59.361Z,47.02
2023-05-05T21:53:26.977Z,47.26
2023-05-05T21:55:55.236Z,47.48
2023-05-05T21:58:24.679Z,47.25
2023-05-05T22:00:52.536Z,47.02
2023-05-05T22:03:20.852Z,47.02
2023-05-05T22:05:48.350Z,46.83
2023-05-05T22:08:15.760Z,47.12
2023-05-05T22:10:43.536Z,47.53
2023-05-05T22:13:11.079Z,47.14
2023-05-05T22:15:46.181Z,47.04
2023-05-05T22:18:15.469Z,46.88
2023-05-05T22:20:43.323Z,47.05
2023-05-05T22:23:10.810Z,46.86
2023-05-05T22:25:38.474Z,46.86
2023-05-05T22:28:05.916Z,46.64
2023-05-05T22:30:33.388Z,46.70
2023-05-05T22:33:01.131Z,46.66
2023-05-05T22:35:28.508Z,46.98
2023-05-05T22:37:55.939Z,47.21
2023-05-05T22:40:23.690Z,47.37
2023-05-05T22:42:51.154Z,47.31
2023-05-05T22:45:18.591Z,47.34
2023-05-05T22:47:46.247Z,48.02
2023-05-05T22:50:13.663Z,47.93
2023-05-05T22:52:41.098Z,48.32
2023-05-05T22:55:09.207Z,48.28
2023-05-05T22:57:36.878Z,48.61
2023-05-05T23:00:05.403Z,49.04
2023-05-05T23:02:33.763Z,49.42
2023-05-05T23:05:01.258Z,49.29
2023-05-05T23:07:29.010Z,48.96
2023-05-05T23:09:56.678Z,48.70
2023-05-05T23:12:24.089Z,48.70
2023-05-05T23:14:52.029Z,48.52
2023-05-05T23:17:19.816Z,48.74
2023-05-05T23:19:48.108Z,48.87
2023-05-05T23:22:15.634Z,49.06
2023-05-05T23:24:43.256Z,48.63
2023-05-05T23:27:10.748Z,48.47
2023-05-05T23:29:38.152Z,48.46
2023-05-05T23:32:06.362Z,48.45
2023-05-05T23:34:33.730Z,48.06
2023-05-05T23:37:01.743Z,47.67
2023-05-05T23:39:31.214Z,47.90
2023-05-05T23:41:58.609Z,47.52
2023-05-05T23:44:26.074Z,47.61
2023-05-05T23:46:53.724Z,48.26
2023-05-05T23:49:21.327Z,48.51
2023-05-05T23:51:48.823Z,48.48
2023-05-05T23:54:16.487Z,48.81
2023-05-05T23:56:43.907Z,48.72
2023-05-05T23:59:11.334Z,48.62
